createdAt,value
2019-01-15T00:04:15.524Z,0.75
2019-01-15T00:09:24.885Z,0.84
2019-01-15T00:14:30.462Z,0.96
2019-01-15T00:19:37.040Z,0.85
2019-01-15T00:24:42.647Z,0.97
2019-01-15T00:29:48.253Z,0.86
2019-01-15T00:34:54.082Z,0.88
2019-01-15T00:39:59.661Z,0.67
2019-01-15T00:45:07.574Z,0.81
2019-01-15T00:50:15.096Z,0.35
2019-01-15T00:55:21.145Z,0.38
2019-01-15T01:00:26.996Z,0.52
2019-01-15T01:05:32.958Z,0.54
2019-01-15T01:10:38.554Z,0.64
2019-01-15T01:15:44.195Z,0.79
2019-01-15T01:20:49.791Z,0.80
2019-01-15T01:25:55.743Z,0.81
2019-01-15T01:31:01.335Z,0.98
2019-01-15T01:36:10.184Z,0.96
2019-01-15T01:41:15.744Z,0.89
2019-01-15T01:46:22.658Z,0.97
2019-01-15T01:51:28.336Z,1.12
2019-01-15T01:56:34.021Z,1.17
2019-01-15T02:01:39.641Z,1.23
2019-01-15T02:06:45.307Z,1.13
2019-01-15T02:11:54.599Z,1.16
2019-01-15T02:17:00.190Z,1.14
2019-01-15T02:22:07.502Z,1.34
2019-01-15T02:27:14.111Z,1.28
2019-01-15T02:32:19.682Z,1.34
2019-01-15T02:37:25.590Z,1.27
2019-01-15T02:42:31.195Z,1.43
2019-01-15T02:47:36.813Z,1.42
2019-01-15T02:52:42.394Z,1.47
2019-01-15T02:57:49.399Z,1.44
2019-01-15T03:02:55.045Z,1.51
2019-01-15T03:08:00.690Z,1.51
2019-01-15T03:13:06.593Z,1.52
2019-01-15T03:18:12.211Z,1.41
2019-01-15T03:23:17.936Z,1.63
2019-01-15T03:28:23.530Z,1.61
2019-01-15T03:33:29.200Z,1.86
2019-01-15T03:38:35.218Z,1.69
2019-01-15T03:43:40.837Z,1.76
2019-01-15T03:48:46.469Z,1.68
2019-01-15T03:53:52.073Z,1.51
2019-01-15T03:58:58.094Z,1.40
2019-01-15T04:04:03.755Z,1.31
2019-01-15T04:09:09.986Z,1.27
2019-01-15T04:14:15.989Z,1.32
2019-01-15T04:19:21.622Z,1.38
2019-01-15T04:24:27.210Z,1.68
2019-01-15T04:29:32.832Z,1.68
2019-01-15T04:34:38.430Z,1.60
2019-01-15T04:39:45.427Z,1.63
2019-01-15T04:44:50.985Z,1.79
2019-01-15T04:49:56.551Z,1.77
2019-01-15T04:55:02.220Z,1.76
2019-01-15T05:00:10.724Z,1.80
2019-01-15T05:05:16.695Z,1.73
2019-01-15T05:10:22.563Z,1.67
2019-01-15T05:15:28.463Z,1.52
2019-01-15T05:20:34.179Z,1.62
2019-01-15T05:25:39.915Z,1.64
2019-01-15T05:30:48.525Z,1.41
2019-01-15T05:35:54.550Z,1.51
2019-01-15T05:41:00.149Z,1.43
2019-01-15T05:46:07.627Z,1.51
2019-01-15T05:51:34.892Z,1.34
2019-01-15T05:56:40.701Z,1.45
2019-01-15T06:01:46.358Z,1.41
2019-01-15T06:06:51.951Z,1.39
2019-01-15T06:11:57.912Z,1.55
2019-01-15T06:17:03.900Z,1.62
2019-01-15T06:22:09.582Z,1.68
2019-01-15T06:32:19.734Z,1.54
2019-01-15T06:37:25.345Z,1.68
2019-01-15T06:42:32.236Z,1.66
2019-01-15T06:47:38.279Z,1.71
2019-01-15T06:52:44.544Z,1.70
2019-01-15T06:57:50.365Z,1.76
2019-01-15T07:02:56.402Z,1.78
2019-01-15T07:08:02.065Z,1.77
2019-01-15T07:13:07.742Z,1.71
2019-01-15T07:18:13.626Z,1.70
2019-01-15T07:23:19.226Z,1.84
2019-01-15T07:28:26.029Z,1.82
2019-01-15T07:33:32.745Z,1.88
2019-01-15T07:38:38.344Z,1.90
2019-01-15T07:43:43.954Z,1.97
2019-01-15T07:48:49.506Z,1.93
2019-01-15T07:53:55.085Z,1.95
2019-01-15T07:59:00.679Z,2.11
2019-01-15T08:04:06.804Z,2.08
2019-01-15T08:09:13.521Z,2.18
2019-01-15T08:14:19.176Z,2.30
2019-01-15T08:19:24.807Z,2.25
2019-01-15T08:24:31.687Z,2.34
2019-01-15T08:29:37.327Z,2.32
2019-01-15T08:34:43.034Z,2.52
2019-01-15T08:39:48.649Z,2.57
2019-01-15T08:44:54.432Z,2.57
2019-01-15T08:50:00.367Z,2.73
2019-01-15T08:55:06.523Z,2.75
2019-01-15T09:00:13.273Z,2.74
2019-01-15T09:05:18.913Z,3.04
2019-01-15T09:10:24.506Z,2.98
2019-01-15T09:15:30.078Z,2.96
2019-01-15T09:20:35.793Z,2.99
2019-01-15T09:25:41.383Z,3.05
2019-01-15T09:30:47.115Z,3.03
2019-01-15T09:35:53.228Z,2.96
2019-01-15T09:40:58.928Z,2.92
2019-01-15T09:46:07.606Z,2.99
2019-01-15T09:51:16.164Z,3.02
2019-01-15T09:56:21.737Z,3.02
2019-01-15T10:01:27.365Z,3.11
2019-01-15T10:06:33.315Z,3.21
2019-01-15T10:11:39.265Z,3.04
2019-01-15T10:16:45.011Z,3.11
2019-01-15T10:21:51.932Z,3.19
2019-01-15T10:26:58.233Z,3.24
2019-01-15T10:32:51.417Z,3.34
2019-01-15T10:37:57.080Z,3.31
2019-01-15T10:43:05.172Z,3.40
2019-01-15T10:48:10.839Z,3.43
2019-01-15T10:53:16.819Z,3.23
2019-01-15T10:58:22.416Z,2.88
2019-01-15T11:04:49.411Z,2.49
2019-01-15T11:09:55.113Z,2.41
2019-01-15T11:15:04.829Z,2.44
2019-01-15T11:20:12.718Z,2.41
2019-01-15T11:25:18.566Z,2.57
2019-01-15T11:30:24.216Z,2.75
2019-01-15T11:35:29.811Z,2.73
2019-01-15T11:40:35.444Z,2.99
2019-01-15T11:45:41.152Z,3.27
2019-01-15T11:50:46.823Z,3.15
2019-01-15T11:55:52.756Z,3.32
2019-01-15T12:01:11.555Z,3.17
2019-01-15T12:06:42.667Z,3.22
2019-01-15T12:12:00.952Z,3.40
2019-01-15T12:17:26.507Z,3.45
2019-01-15T12:22:57.440Z,3.38
2019-01-15T12:28:19.807Z,3.47
2019-01-15T12:34:02.525Z,3.36
2019-01-15T12:39:26.527Z,3.46
2019-01-15T12:44:50.122Z,3.57
2019-01-15T12:50:14.735Z,3.43
2019-01-15T12:55:39.245Z,3.27
2019-01-15T13:01:04.413Z,3.08
2019-01-15T13:06:44.015Z,3.16
2019-01-15T13:12:07.287Z,3.19
2019-01-15T13:17:30.252Z,2.87
2019-01-15T13:22:54.920Z,2.88
2019-01-15T13:28:12.608Z,2.90
2019-01-15T13:33:43.666Z,2.78
2019-01-15T13:39:04.715Z,2.80
2019-01-15T13:44:35.997Z,2.88
2019-01-15T13:49:59.090Z,2.79
2019-01-15T13:55:39.735Z,2.62
2019-01-15T14:00:55.479Z,2.72
2019-01-15T14:06:19.102Z,2.79
2019-01-15T14:11:42.065Z,2.85
2019-01-15T14:17:18.643Z,2.65
2019-01-15T14:22:55.734Z,2.76
2019-01-15T14:28:11.270Z,2.76
2019-01-15T14:33:47.824Z,2.69
2019-01-15T14:39:19.968Z,2.77
2019-01-15T14:44:59.813Z,2.85
2019-01-15T14:50:26.645Z,2.84
2019-01-15T14:55:54.027Z,2.91
2019-01-15T15:01:21.468Z,3.05
2019-01-15T15:07:02.935Z,3.03
2019-01-15T15:12:42.283Z,3.14
2019-01-15T15:18:09.617Z,2.95
2019-01-15T15:23:52.181Z,3.04
2019-01-15T15:29:16.757Z,2.95
2019-01-15T15:34:52.945Z,2.99
2019-01-15T15:40:30.017Z,2.99
2019-01-15T15:45:53.944Z,3.02
2019-01-15T15:51:08.335Z,2.92
2019-01-15T15:56:47.880Z,2.98
2019-01-15T16:02:11.780Z,2.95
2019-01-15T16:07:41.788Z,2.83
2019-01-15T16:13:04.898Z,2.77
2019-01-15T16:18:42.103Z,2.77
2019-01-15T16:24:17.109Z,2.70
2019-01-15T16:29:46.738Z,2.73
2019-01-15T16:35:29.691Z,2.82
2019-01-15T16:41:06.344Z,2.92
2019-01-15T16:46:30.955Z,3.10
2019-01-15T16:51:54.992Z,3.01
2019-01-15T16:57:18.361Z,3.16
2019-01-15T17:02:41.863Z,3.01
2019-01-15T17:08:06.990Z,2.97
2019-01-15T17:13:51.632Z,3.09
2019-01-15T17:19:32.097Z,3.19
2019-01-15T17:24:50.756Z,3.30
2019-01-15T17:30:15.986Z,3.41
2019-01-15T17:35:40.548Z,3.49
2019-01-15T17:41:06.166Z,3.56
2019-01-15T17:46:29.498Z,3.52
2019-01-15T17:51:54.060Z,3.71
2019-01-15T17:57:21.534Z,3.65
2019-01-15T18:02:52.513Z,3.66
2019-01-15T18:08:25.907Z,3.70
2019-01-15T18:13:49.461Z,3.77
2019-01-15T18:19:31.282Z,3.75
2019-01-15T18:24:55.150Z,3.74
2019-01-15T18:30:18.851Z,3.71
2019-01-15T18:35:46.898Z,3.71
2019-01-15T18:41:26.915Z,3.73
2019-01-15T18:46:55.786Z,3.76
2019-01-15T18:52:20.513Z,3.71
2019-01-15T18:57:44.681Z,3.70
2019-01-15T19:03:25.632Z,3.80
2019-01-15T19:08:50.250Z,3.79
2019-01-15T19:14:18.621Z,3.87
2019-01-15T19:19:55.676Z,3.91
2019-01-15T19:25:20.346Z,3.98
2019-01-15T19:30:48.461Z,4.00
2019-01-15T19:36:29.197Z,3.89
2019-01-15T19:41:58.082Z,4.01
2019-01-15T19:47:23.043Z,4.08
2019-01-15T19:52:39.731Z,4.11
2019-01-15T19:58:18.011Z,4.15
2019-01-15T20:04:01.715Z,4.09
2019-01-15T20:09:31.328Z,4.18
2019-01-15T20:14:54.285Z,4.18
2019-01-15T20:20:43.320Z,4.24
2019-01-15T20:26:01.337Z,4.29
2019-01-15T20:31:30.017Z,4.38
2019-01-15T20:37:06.144Z,4.31
2019-01-15T20:42:33.132Z,4.30
2019-01-15T20:48:00.471Z,4.38
2019-01-15T20:53:25.204Z,4.42
2019-01-15T20:58:50.059Z,4.58
2019-01-15T21:04:23.721Z,4.47
2019-01-15T21:10:07.720Z,4.59
2019-01-15T21:15:36.005Z,4.62
2019-01-15T21:21:06.897Z,4.65
2019-01-15T21:26:39.862Z,4.75
2019-01-15T21:32:04.507Z,4.77
2019-01-15T21:37:30.322Z,4.81
2019-01-15T21:42:53.601Z,4.75
2019-01-15T21:48:25.980Z,4.85
2019-01-15T21:53:52.356Z,4.78
2019-01-15T21:59:17.487Z,4.70
2019-01-15T22:04:36.751Z,4.61
2019-01-15T22:10:07.631Z,4.61
2019-01-15T22:15:33.575Z,4.57
2019-01-15T22:21:06.437Z,4.44
2019-01-15T22:26:46.224Z,4.35
2019-01-15T22:32:16.569Z,4.45
2019-01-15T22:37:48.224Z,4.46
2019-01-15T22:43:10.760Z,4.57
2019-01-15T22:48:41.319Z,4.42
2019-01-15T22:54:09.021Z,4.37
2019-01-15T22:59:48.824Z,4.24
2019-01-15T23:05:13.352Z,4.18
2019-01-15T23:10:44.035Z,4.18
2019-01-15T23:16:08.629Z,4.14
2019-01-15T23:21:32.135Z,4.09
2019-01-15T23:26:56.669Z,3.98
2019-01-15T23:32:12.483Z,4.01
2019-01-15T23:37:43.279Z,4.03
2019-01-15T23:43:10.803Z,3.87
2019-01-15T23:48:36.199Z,3.81
2019-01-15T23:54:35.878Z,3.99
2019-01-15T23:59:51.776Z,3.96
